KMLC

Mc Alester Regional Airport

Mc Alester, Oklahoma, USA

KMLC 110853Z AUTO 00000KT 10SM CLR 01/M04 A3022 RMK AO2 SLP230 T00061039 56011

Observed Flight Rules
Dec-11 @ 08:53 UTC (28 minutes ago) Visual Flight Rules
Wind Visibility Clouds
Calm 10 miles
  • Clear skies
Temperatures Readings
Current 1°C / 34°F
Dewpoint -4°C / 25°F
Humidity 70%
Altimeter 30.22" Hg
Pressure 1023 hPa
Elevation 232
Observed Flight Rules
Dec-11 @ 08:53 UTC
(28 minutes ago)
VFR
Wind Visibility
Calm 10 miles
Clouds
  • Clear skies
Temperature Dewpoint
1°C / 34°F -4°C / 25°F
Humidity Altimeter Pressure
70% 30.22" Hg 1023 hPa